sensor_id;sensor_type;location;lat;lon;timestamp;temperature;humidity
16578;DHT22;8401;52.528;13.340;2024-03-02T00:00:20;9.20;99.90
16578;DHT22;8401;52.528;13.340;2024-03-02T00:02:48;9.20;99.90
16578;DHT22;8401;52.528;13.340;2024-03-02T00:05:18;9.20;99.90
16578;DHT22;8401;52.528;13.340;2024-03-02T00:07:47;9.20;99.90
16578;DHT22;8401;52.528;13.340;2024-03-02T00:10:16;9.20;99.90
16578;DHT22;8401;52.528;13.340;2024-03-02T00:12:47;9.20;99.90
16578;DHT22;8401;52.528;13.340;2024-03-02T00:17:59;9.20;99.90
16578;DHT22;8401;52.528;13.340;2024-03-02T00:20:25;9.20;99.90
16578;DHT22;8401;52.528;13.340;2024-03-02T00:22:59;9.20;99.90
16578;DHT22;8401;52.528;13.340;2024-03-02T00:25:33;9.20;99.90
16578;DHT22;8401;52.528;13.340;2024-03-02T00:28:00;9.20;99.90
16578;DHT22;8401;52.528;13.340;2024-03-02T00:30:55;9.20;99.90
16578;DHT22;8401;52.528;13.340;2024-03-02T00:33:23;9.20;99.90
16578;DHT22;8401;52.528;13.340;2024-03-02T00:35:49;9.20;99.90
16578;DHT22;8401;52.528;13.340;2024-03-02T00:38:15;9.20;99.90
16578;DHT22;8401;52.528;13.340;2024-03-02T00:40:44;9.20;99.90
16578;DHT22;8401;52.528;13.340;2024-03-02T00:45:54;9.10;99.90
16578;DHT22;8401;52.528;13.340;2024-03-02T00:48:20;9.10;99.90
16578;DHT22;8401;52.528;13.340;2024-03-02T00:50:46;9.10;99.90
16578;DHT22;8401;52.528;13.340;2024-03-02T00:53:15;9.00;99.90
16578;DHT22;8401;52.528;13.340;2024-03-02T00:55:42;9.10;99.90
16578;DHT22;8401;52.528;13.340;2024-03-02T00:58:12;9.10;99.90
16578;DHT22;8401;52.528;13.340;2024-03-02T01:00:38;9.20;99.90
16578;DHT22;8401;52.528;13.340;2024-03-02T01:03:04;9.20;99.90
16578;DHT22;8401;52.528;13.340;2024-03-02T01:05:29;9.20;99.90
16578;DHT22;8401;52.528;13.340;2024-03-02T01:07:55;9.10;99.90
16578;DHT22;8401;52.528;13.340;2024-03-02T01:10:20;9.20;99.90
16578;DHT22;8401;52.528;13.340;2024-03-02T01:12:46;9.10;99.90
16578;DHT22;8401;52.528;13.340;2024-03-02T01:15:12;9.20;99.90
16578;DHT22;8401;52.528;13.340;2024-03-02T01:17:37;9.20;99.90
16578;DHT22;8401;52.528;13.340;2024-03-02T01:20:03;9.20;99.90
16578;DHT22;8401;52.528;13.340;2024-03-02T01:22:29;9.20;99.90
16578;DHT22;8401;52.528;13.340;2024-03-02T01:24:55;9.20;99.90
16578;DHT22;8401;52.528;13.340;2024-03-02T01:27:21;9.20;99.90
16578;DHT22;8401;52.528;13.340;2024-03-02T01:29:46;9.20;99.90
16578;DHT22;8401;52.528;13.340;2024-03-02T01:32:12;9.20;99.90
16578;DHT22;8401;52.528;13.340;2024-03-02T01:34:37;9.20;99.90
16578;DHT22;8401;52.528;13.340;2024-03-02T01:37:03;9.20;99.90
16578;DHT22;8401;52.528;13.340;2024-03-02T01:39:29;9.10;99.90
16578;DHT22;8401;52.528;13.340;2024-03-02T01:41:54;9.10;99.90
16578;DHT22;8401;52.528;13.340;2024-03-02T01:44:20;9.10;99.90
16578;DHT22;8401;52.528;13.340;2024-03-02T01:46:46;9.10;99.90
16578;DHT22;8401;52.528;13.340;2024-03-02T01:49:11;9.10;99.90
16578;DHT22;8401;52.528;13.340;2024-03-02T01:51:37;9.10;99.90
16578;DHT22;8401;52.528;13.340;2024-03-02T01:54:03;9.10;99.90
16578;DHT22;8401;52.528;13.340;2024-03-02T01:56:28;9.10;99.90
16578;DHT22;8401;52.528;13.340;2024-03-02T01:58:54;9.10;99.90
16578;DHT22;8401;52.528;13.340;2024-03-02T02:01:20;9.00;99.90
16578;DHT22;8401;52.528;13.340;2024-03-02T02:03:45;9.10;99.90
16578;DHT22;8401;52.528;13.340;2024-03-02T02:06:11;9.10;99.90
16578;DHT22;8401;52.528;13.340;2024-03-02T02:08:37;9.10;99.90
16578;DHT22;8401;52.528;13.340;2024-03-02T02:11:03;9.10;99.90
16578;DHT22;8401;52.528;13.340;2024-03-02T02:13:29;9.10;99.90
16578;DHT22;8401;52.528;13.340;2024-03-02T02:15:54;9.10;99.90
16578;DHT22;8401;52.528;13.340;2024-03-02T02:18:20;9.10;99.90
16578;DHT22;8401;52.528;13.340;2024-03-02T02:20:46;9.10;99.90
16578;DHT22;8401;52.528;13.340;2024-03-02T02:23:11;9.10;99.90
16578;DHT22;8401;52.528;13.340;2024-03-02T02:25:39;9.20;99.90
16578;DHT22;8401;52.528;13.340;2024-03-02T02:28:04;9.20;99.90
16578;DHT22;8401;52.528;13.340;2024-03-02T02:30:32;9.20;99.90
16578;DHT22;8401;52.528;13.340;2024-03-02T02:32:58;9.20;99.90
16578;DHT22;8401;52.528;13.340;2024-03-02T02:35:24;9.20;99.90
16578;DHT22;8401;52.528;13.340;2024-03-02T02:37:50;9.40;99.90
16578;DHT22;8401;52.528;13.340;2024-03-02T02:40:16;9.50;99.90
16578;DHT22;8401;52.528;13.340;2024-03-02T02:42:44;9.70;99.90
16578;DHT22;8401;52.528;13.340;2024-03-02T02:45:09;9.90;99.90
16578;DHT22;8401;52.528;13.340;2024-03-02T02:47:36;9.90;99.90
16578;DHT22;8401;52.528;13.340;2024-03-02T02:50:03;10.00;99.90
16578;DHT22;8401;52.528;13.340;2024-03-02T02:52:33;10.00;99.90
16578;DHT22;8401;52.528;13.340;2024-03-02T02:54:59;10.00;99.90
16578;DHT22;8401;52.528;13.340;2024-03-02T02:57:25;10.00;99.90
16578;DHT22;8401;52.528;13.340;2024-03-02T02:59:50;10.00;99.90
16578;DHT22;8401;52.528;13.340;2024-03-02T03:02:16;10.00;99.90
16578;DHT22;8401;52.528;13.340;2024-03-02T03:04:41;9.80;99.90
16578;DHT22;8401;52.528;13.340;2024-03-02T03:07:07;9.90;99.90
16578;DHT22;8401;52.528;13.340;2024-03-02T03:09:32;10.00;99.90
16578;DHT22;8401;52.528;13.340;2024-03-02T03:11:58;10.00;99.90
16578;DHT22;8401;52.528;13.340;2024-03-02T03:14:24;9.90;99.90
16578;DHT22;8401;52.528;13.340;2024-03-02T03:16:49;9.90;99.90
16578;DHT22;8401;52.528;13.340;2024-03-02T03:19:16;9.90;99.90
16578;DHT22;8401;52.528;13.340;2024-03-02T03:21:43;9.80;99.90
16578;DHT22;8401;52.528;13.340;2024-03-02T03:24:09;9.80;99.90
16578;DHT22;8401;52.528;13.340;2024-03-02T03:26:36;9.90;99.90
16578;DHT22;8401;52.528;13.340;2024-03-02T03:29:02;9.90;99.90
16578;DHT22;8401;52.528;13.340;2024-03-02T03:31:28;9.80;99.90
16578;DHT22;8401;52.528;13.340;2024-03-02T03:33:54;9.80;99.90
16578;DHT22;8401;52.528;13.340;2024-03-02T03:36:20;9.80;99.90
16578;DHT22;8401;52.528;13.340;2024-03-02T03:38:46;9.80;99.90
16578;DHT22;8401;52.528;13.340;2024-03-02T03:41:11;9.80;99.90
16578;DHT22;8401;52.528;13.340;2024-03-02T03:43:37;9.80;99.90
16578;DHT22;8401;52.528;13.340;2024-03-02T03:46:03;9.90;99.90
16578;DHT22;8401;52.528;13.340;2024-03-02T03:48:28;9.90;99.90
16578;DHT22;8401;52.528;13.340;2024-03-02T03:50:56;9.90;99.90
16578;DHT22;8401;52.528;13.340;2024-03-02T03:53:22;9.90;99.90
16578;DHT22;8401;52.528;13.340;2024-03-02T03:55:48;9.90;99.90
16578;DHT22;8401;52.528;13.340;2024-03-02T03:58:15;9.90;99.90
16578;DHT22;8401;52.528;13.340;2024-03-02T04:00:42;9.90;99.90
16578;DHT22;8401;52.528;13.340;2024-03-02T04:03:07;9.90;99.90
16578;DHT22;8401;52.528;13.340;2024-03-02T04:05:33;9.90;99.90
16578;DHT22;8401;52.528;13.340;2024-03-02T04:07:59;9.90;99.90
16578;DHT22;8401;52.528;13.340;2024-03-02T04:10:26;10.00;99.90
16578;DHT22;8401;52.528;13.340;2024-03-02T04:12:51;9.90;99.90
16578;DHT22;8401;52.528;13.340;2024-03-02T04:15:17;9.90;99.90
16578;DHT22;8401;52.528;13.340;2024-03-02T04:17:44;9.90;99.90
16578;DHT22;8401;52.528;13.340;2024-03-02T04:20:10;9.80;99.90
16578;DHT22;8401;52.528;13.340;2024-03-02T04:22:38;9.80;99.90
16578;DHT22;8401;52.528;13.340;2024-03-02T04:25:04;9.80;99.90
16578;DHT22;8401;52.528;13.340;2024-03-02T04:27:32;9.80;99.90
16578;DHT22;8401;52.528;13.340;2024-03-02T04:29:59;9.80;99.90
16578;DHT22;8401;52.528;13.340;2024-03-02T04:32:26;9.90;99.90
16578;DHT22;8401;52.528;13.340;2024-03-02T04:34:52;9.90;99.90
16578;DHT22;8401;52.528;13.340;2024-03-02T04:37:18;9.90;99.90
16578;DHT22;8401;52.528;13.340;2024-03-02T04:39:43;9.80;99.90
16578;DHT22;8401;52.528;13.340;2024-03-02T04:42:09;9.80;99.90
16578;DHT22;8401;52.528;13.340;2024-03-02T04:44:35;9.80;99.90
16578;DHT22;8401;52.528;13.340;2024-03-02T04:47:00;9.90;99.90
16578;DHT22;8401;52.528;13.340;2024-03-02T04:49:26;9.90;99.90
16578;DHT22;8401;52.528;13.340;2024-03-02T04:51:51;9.90;99.90
16578;DHT22;8401;52.528;13.340;2024-03-02T04:54:17;10.00;99.90
16578;DHT22;8401;52.528;13.340;2024-03-02T04:56:43;10.00;99.90
16578;DHT22;8401;52.528;13.340;2024-03-02T04:59:15;10.00;99.90
16578;DHT22;8401;52.528;13.340;2024-03-02T05:01:42;10.00;99.90
16578;DHT22;8401;52.528;13.340;2024-03-02T05:04:07;10.00;99.90
16578;DHT22;8401;52.528;13.340;2024-03-02T05:06:33;10.00;99.90
16578;DHT22;8401;52.528;13.340;2024-03-02T05:08:59;10.00;99.90
16578;DHT22;8401;52.528;13.340;2024-03-02T05:11:24;10.00;99.90
16578;DHT22;8401;52.528;13.340;2024-03-02T05:14:10;10.00;99.90
16578;DHT22;8401;52.528;13.340;2024-03-02T05:16:36;9.90;99.90
16578;DHT22;8401;52.528;13.340;2024-03-02T05:19:07;9.90;99.90
16578;DHT22;8401;52.528;13.340;2024-03-02T05:21:33;9.90;99.90
16578;DHT22;8401;52.528;13.340;2024-03-02T05:23:59;9.90;99.90
16578;DHT22;8401;52.528;13.340;2024-03-02T05:26:25;10.00;99.90
16578;DHT22;8401;52.528;13.340;2024-03-02T05:28:50;9.90;99.90
16578;DHT22;8401;52.528;13.340;2024-03-02T05:31:16;9.90;99.90
16578;DHT22;8401;52.528;13.340;2024-03-02T05:33:42;9.90;99.90
16578;DHT22;8401;52.528;13.340;2024-03-02T05:36:08;9.90;99.90
16578;DHT22;8401;52.528;13.340;2024-03-02T05:38:36;9.90;99.90
16578;DHT22;8401;52.528;13.340;2024-03-02T05:41:02;9.90;99.90
16578;DHT22;8401;52.528;13.340;2024-03-02T05:43:28;9.90;99.90
16578;DHT22;8401;52.528;13.340;2024-03-02T05:45:54;9.80;99.90
16578;DHT22;8401;52.528;13.340;2024-03-02T05:48:20;9.80;99.90
16578;DHT22;8401;52.528;13.340;2024-03-02T05:50:45;9.70;99.90
16578;DHT22;8401;52.528;13.340;2024-03-02T05:53:11;9.70;99.90
16578;DHT22;8401;52.528;13.340;2024-03-02T05:55:37;9.70;99.90
16578;DHT22;8401;52.528;13.340;2024-03-02T05:58:03;9.70;99.90
16578;DHT22;8401;52.528;13.340;2024-03-02T06:00:48;9.70;99.90
16578;DHT22;8401;52.528;13.340;2024-03-02T06:03:13;9.60;99.90
16578;DHT22;8401;52.528;13.340;2024-03-02T06:05:39;9.60;99.90
16578;DHT22;8401;52.528;13.340;2024-03-02T06:08:06;9.70;99.90
16578;DHT22;8401;52.528;13.340;2024-03-02T06:10:32;9.70;99.90
16578;DHT22;8401;52.528;13.340;2024-03-02T06:12:58;9.60;99.90
16578;DHT22;8401;52.528;13.340;2024-03-02T06:15:24;9.60;99.90
16578;DHT22;8401;52.528;13.340;2024-03-02T06:17:50;9.50;99.90
16578;DHT22;8401;52.528;13.340;2024-03-02T06:20:15;9.40;99.90
16578;DHT22;8401;52.528;13.340;2024-03-02T06:22:41;9.50;99.90
16578;DHT22;8401;52.528;13.340;2024-03-02T06:25:07;9.50;99.90
16578;DHT22;8401;52.528;13.340;2024-03-02T06:27:33;9.50;99.90
16578;DHT22;8401;52.528;13.340;2024-03-02T06:29:58;9.40;99.90
16578;DHT22;8401;52.528;13.340;2024-03-02T06:32:24;9.30;99.90
16578;DHT22;8401;52.528;13.340;2024-03-02T06:34:50;9.30;99.90
16578;DHT22;8401;52.528;13.340;2024-03-02T06:37:16;9.30;99.90
16578;DHT22;8401;52.528;13.340;2024-03-02T06:39:41;9.30;99.90
16578;DHT22;8401;52.528;13.340;2024-03-02T06:42:07;9.30;99.90
16578;DHT22;8401;52.528;13.340;2024-03-02T06:44:34;9.30;99.90
16578;DHT22;8401;52.528;13.340;2024-03-02T06:46:59;9.50;99.90
16578;DHT22;8401;52.528;13.340;2024-03-02T06:49:25;9.70;99.90
16578;DHT22;8401;52.528;13.340;2024-03-02T06:51:51;9.60;99.90
16578;DHT22;8401;52.528;13.340;2024-03-02T06:54:17;9.70;99.90
16578;DHT22;8401;52.528;13.340;2024-03-02T06:56:42;9.50;99.90
16578;DHT22;8401;52.528;13.340;2024-03-02T06:59:08;9.50;99.90
16578;DHT22;8401;52.528;13.340;2024-03-02T07:01:33;9.50;99.90
16578;DHT22;8401;52.528;13.340;2024-03-02T07:04:00;9.70;99.90
16578;DHT22;8401;52.528;13.340;2024-03-02T07:06:25;9.90;99.90
16578;DHT22;8401;52.528;13.340;2024-03-02T07:08:51;9.80;99.90
16578;DHT22;8401;52.528;13.340;2024-03-02T07:11:16;9.60;99.90
16578;DHT22;8401;52.528;13.340;2024-03-02T07:13:42;9.70;99.90
16578;DHT22;8401;52.528;13.340;2024-03-02T07:16:07;9.60;99.90
16578;DHT22;8401;52.528;13.340;2024-03-02T07:18:36;9.80;99.90
16578;DHT22;8401;52.528;13.340;2024-03-02T07:21:10;9.90;99.90
16578;DHT22;8401;52.528;13.340;2024-03-02T07:23:36;10.00;99.90
16578;DHT22;8401;52.528;13.340;2024-03-02T07:26:01;10.10;99.90
16578;DHT22;8401;52.528;13.340;2024-03-02T07:28:28;10.10;99.90
16578;DHT22;8401;52.528;13.340;2024-03-02T07:31:03;10.00;99.90
16578;DHT22;8401;52.528;13.340;2024-03-02T07:33:30;10.00;99.90
16578;DHT22;8401;52.528;13.340;2024-03-02T07:35:56;10.00;99.90
16578;DHT22;8401;52.528;13.340;2024-03-02T07:38:22;10.00;99.90
16578;DHT22;8401;52.528;13.340;2024-03-02T07:40:51;10.00;99.90
16578;DHT22;8401;52.528;13.340;2024-03-02T07:43:17;9.90;99.90
16578;DHT22;8401;52.528;13.340;2024-03-02T07:45:43;10.00;99.90
16578;DHT22;8401;52.528;13.340;2024-03-02T07:48:09;10.00;99.90
16578;DHT22;8401;52.528;13.340;2024-03-02T07:50:34;10.00;99.90
16578;DHT22;8401;52.528;13.340;2024-03-02T07:53:01;10.00;99.90
16578;DHT22;8401;52.528;13.340;2024-03-02T07:55:27;10.00;99.90
16578;DHT22;8401;52.528;13.340;2024-03-02T07:57:52;10.00;99.90
16578;DHT22;8401;52.528;13.340;2024-03-02T08:00:18;10.00;99.90
16578;DHT22;8401;52.528;13.340;2024-03-02T08:02:44;10.00;99.90
16578;DHT22;8401;52.528;13.340;2024-03-02T08:05:10;9.90;99.90
16578;DHT22;8401;52.528;13.340;2024-03-02T08:07:35;9.90;99.90
16578;DHT22;8401;52.528;13.340;2024-03-02T08:10:01;9.90;99.90
16578;DHT22;8401;52.528;13.340;2024-03-02T08:12:27;9.80;99.90
16578;DHT22;8401;52.528;13.340;2024-03-02T08:14:52;9.80;99.90
16578;DHT22;8401;52.528;13.340;2024-03-02T08:17:18;9.80;99.90
16578;DHT22;8401;52.528;13.340;2024-03-02T08:19:44;9.90;99.90
16578;DHT22;8401;52.528;13.340;2024-03-02T08:22:10;9.90;99.90
16578;DHT22;8401;52.528;13.340;2024-03-02T08:24:36;9.90;99.90
16578;DHT22;8401;52.528;13.340;2024-03-02T08:27:01;10.00;99.90
16578;DHT22;8401;52.528;13.340;2024-03-02T08:29:27;10.00;99.90
16578;DHT22;8401;52.528;13.340;2024-03-02T08:31:54;10.00;99.90
16578;DHT22;8401;52.528;13.340;2024-03-02T08:34:19;10.00;99.90
16578;DHT22;8401;52.528;13.340;2024-03-02T08:36:46;9.90;99.90
16578;DHT22;8401;52.528;13.340;2024-03-02T08:39:12;9.90;99.90
16578;DHT22;8401;52.528;13.340;2024-03-02T08:41:50;9.80;99.90
16578;DHT22;8401;52.528;13.340;2024-03-02T08:44:16;9.80;99.90
16578;DHT22;8401;52.528;13.340;2024-03-02T08:46:41;9.90;99.90
16578;DHT22;8401;52.528;13.340;2024-03-02T08:49:07;9.90;99.90
16578;DHT22;8401;52.528;13.340;2024-03-02T08:51:33;9.90;99.90
16578;DHT22;8401;52.528;13.340;2024-03-02T08:53:59;9.90;99.90
16578;DHT22;8401;52.528;13.340;2024-03-02T08:56:25;9.80;99.90
16578;DHT22;8401;52.528;13.340;2024-03-02T08:58:51;9.70;99.90
16578;DHT22;8401;52.528;13.340;2024-03-02T09:01:17;9.70;99.90
16578;DHT22;8401;52.528;13.340;2024-03-02T09:03:43;9.70;99.90
16578;DHT22;8401;52.528;13.340;2024-03-02T09:06:12;9.70;99.90
16578;DHT22;8401;52.528;13.340;2024-03-02T09:08:39;9.70;99.90
16578;DHT22;8401;52.528;13.340;2024-03-02T09:11:05;9.70;99.90
16578;DHT22;8401;52.528;13.340;2024-03-02T09:13:32;9.80;99.90
16578;DHT22;8401;52.528;13.340;2024-03-02T09:15:58;9.80;99.90
16578;DHT22;8401;52.528;13.340;2024-03-02T09:18:24;9.90;99.90
16578;DHT22;8401;52.528;13.340;2024-03-02T09:20:49;10.00;99.90
16578;DHT22;8401;52.528;13.340;2024-03-02T09:23:15;10.00;99.90
16578;DHT22;8401;52.528;13.340;2024-03-02T09:25:41;10.00;99.90
16578;DHT22;8401;52.528;13.340;2024-03-02T09:28:06;10.00;99.90
16578;DHT22;8401;52.528;13.340;2024-03-02T09:30:33;10.10;99.90
16578;DHT22;8401;52.528;13.340;2024-03-02T09:32:58;10.00;99.90
16578;DHT22;8401;52.528;13.340;2024-03-02T09:35:24;10.00;99.90
16578;DHT22;8401;52.528;13.340;2024-03-02T09:37:50;10.00;99.90
16578;DHT22;8401;52.528;13.340;2024-03-02T09:40:16;10.10;99.90
16578;DHT22;8401;52.528;13.340;2024-03-02T09:42:42;10.20;99.90
16578;DHT22;8401;52.528;13.340;2024-03-02T09:45:09;10.20;99.90
16578;DHT22;8401;52.528;13.340;2024-03-02T09:47:35;10.40;99.90
16578;DHT22;8401;52.528;13.340;2024-03-02T09:50:01;10.50;99.90
16578;DHT22;8401;52.528;13.340;2024-03-02T09:52:27;10.60;99.90
16578;DHT22;8401;52.528;13.340;2024-03-02T09:54:53;10.70;99.90
16578;DHT22;8401;52.528;13.340;2024-03-02T09:57:18;10.70;99.90
16578;DHT22;8401;52.528;13.340;2024-03-02T09:59:44;10.60;99.90
16578;DHT22;8401;52.528;13.340;2024-03-02T10:02:11;10.60;99.90
16578;DHT22;8401;52.528;13.340;2024-03-02T10:04:36;11.10;99.90
16578;DHT22;8401;52.528;13.340;2024-03-02T10:07:15;11.30;99.90
16578;DHT22;8401;52.528;13.340;2024-03-02T10:09:42;11.60;99.90
16578;DHT22;8401;52.528;13.340;2024-03-02T10:12:10;11.60;99.90
16578;DHT22;8401;52.528;13.340;2024-03-02T10:14:37;11.40;99.90
16578;DHT22;8401;52.528;13.340;2024-03-02T10:17:04;11.70;99.90
16578;DHT22;8401;52.528;13.340;2024-03-02T10:19:30;12.00;99.90
16578;DHT22;8401;52.528;13.340;2024-03-02T10:22:01;12.00;99.90
16578;DHT22;8401;52.528;13.340;2024-03-02T10:24:34;12.00;99.90
16578;DHT22;8401;52.528;13.340;2024-03-02T10:27:01;12.00;99.90
16578;DHT22;8401;52.528;13.340;2024-03-02T10:29:29;11.90;99.90
16578;DHT22;8401;52.528;13.340;2024-03-02T10:31:55;11.80;99.90
16578;DHT22;8401;52.528;13.340;2024-03-02T10:34:21;11.80;99.90
16578;DHT22;8401;52.528;13.340;2024-03-02T10:36:47;11.60;99.90
16578;DHT22;8401;52.528;13.340;2024-03-02T10:39:14;11.60;99.90
16578;DHT22;8401;52.528;13.340;2024-03-02T10:41:40;11.70;99.90
16578;DHT22;8401;52.528;13.340;2024-03-02T10:44:09;11.80;99.90
16578;DHT22;8401;52.528;13.340;2024-03-02T10:46:36;11.80;99.90
16578;DHT22;8401;52.528;13.340;2024-03-02T10:49:04;11.70;99.90
16578;DHT22;8401;52.528;13.340;2024-03-02T10:51:31;11.70;99.90
16578;DHT22;8401;52.528;13.340;2024-03-02T10:53:58;11.80;99.90
16578;DHT22;8401;52.528;13.340;2024-03-02T10:56:44;11.80;99.90
16578;DHT22;8401;52.528;13.340;2024-03-02T10:59:17;12.10;99.90
16578;DHT22;8401;52.528;13.340;2024-03-02T11:01:48;12.30;99.90
16578;DHT22;8401;52.528;13.340;2024-03-02T11:04:16;12.40;99.90
16578;DHT22;8401;52.528;13.340;2024-03-02T11:06:49;12.50;99.90
16578;DHT22;8401;52.528;13.340;2024-03-02T11:09:25;12.70;99.90
16578;DHT22;8401;52.528;13.340;2024-03-02T11:12:09;12.80;99.90
16578;DHT22;8401;52.528;13.340;2024-03-02T11:14:41;12.90;99.90
16578;DHT22;8401;52.528;13.340;2024-03-02T11:17:09;13.00;99.90
16578;DHT22;8401;52.528;13.340;2024-03-02T11:19:38;13.00;99.90
16578;DHT22;8401;52.528;13.340;2024-03-02T11:22:04;13.10;99.90
16578;DHT22;8401;52.528;13.340;2024-03-02T11:24:30;13.00;99.90
16578;DHT22;8401;52.528;13.340;2024-03-02T11:27:04;12.80;99.90
16578;DHT22;8401;52.528;13.340;2024-03-02T11:32:13;13.30;99.90
16578;DHT22;8401;52.528;13.340;2024-03-02T11:34:44;13.20;99.90
16578;DHT22;8401;52.528;13.340;2024-03-02T11:37:12;12.90;99.90
16578;DHT22;8401;52.528;13.340;2024-03-02T11:39:39;12.70;99.90
16578;DHT22;8401;52.528;13.340;2024-03-02T11:42:08;12.60;99.90
16578;DHT22;8401;52.528;13.340;2024-03-02T11:44:36;12.70;99.90
16578;DHT22;8401;52.528;13.340;2024-03-02T11:47:06;12.70;99.90
16578;DHT22;8401;52.528;13.340;2024-03-02T11:49:43;12.90;99.90
16578;DHT22;8401;52.528;13.340;2024-03-02T11:52:15;13.10;99.90
16578;DHT22;8401;52.528;13.340;2024-03-02T11:54:42;13.20;99.90
16578;DHT22;8401;52.528;13.340;2024-03-02T11:57:17;13.40;99.90
16578;DHT22;8401;52.528;13.340;2024-03-02T11:59:43;13.40;99.90
16578;DHT22;8401;52.528;13.340;2024-03-02T12:02:18;13.20;99.90
16578;DHT22;8401;52.528;13.340;2024-03-02T12:04:44;13.10;99.90
16578;DHT22;8401;52.528;13.340;2024-03-02T12:07:11;13.10;99.90
16578;DHT22;8401;52.528;13.340;2024-03-02T12:09:37;13.30;99.90
16578;DHT22;8401;52.528;13.340;2024-03-02T12:12:07;13.40;99.90
16578;DHT22;8401;52.528;13.340;2024-03-02T12:14:34;13.50;99.90
16578;DHT22;8401;52.528;13.340;2024-03-02T12:17:01;13.40;99.90
16578;DHT22;8401;52.528;13.340;2024-03-02T12:19:27;13.50;99.90
16578;DHT22;8401;52.528;13.340;2024-03-02T12:21:56;13.50;99.90
16578;DHT22;8401;52.528;13.340;2024-03-02T12:24:23;13.50;99.90
16578;DHT22;8401;52.528;13.340;2024-03-02T12:26:52;13.50;99.90
16578;DHT22;8401;52.528;13.340;2024-03-02T12:29:19;13.50;99.90
16578;DHT22;8401;52.528;13.340;2024-03-02T12:31:45;13.50;99.90
16578;DHT22;8401;52.528;13.340;2024-03-02T12:34:17;13.60;99.90
16578;DHT22;8401;52.528;13.340;2024-03-02T12:36:43;13.40;99.90
16578;DHT22;8401;52.528;13.340;2024-03-02T12:39:09;13.50;99.90
16578;DHT22;8401;52.528;13.340;2024-03-02T12:41:38;13.50;99.90
16578;DHT22;8401;52.528;13.340;2024-03-02T12:44:05;13.80;99.90
16578;DHT22;8401;52.528;13.340;2024-03-02T12:46:31;14.00;99.90
16578;DHT22;8401;52.528;13.340;2024-03-02T12:49:04;14.00;99.90
16578;DHT22;8401;52.528;13.340;2024-03-02T12:51:32;13.70;99.90
16578;DHT22;8401;52.528;13.340;2024-03-02T12:53:58;13.50;99.90
16578;DHT22;8401;52.528;13.340;2024-03-02T12:56:25;13.60;99.90
16578;DHT22;8401;52.528;13.340;2024-03-02T12:58:55;13.60;99.90
16578;DHT22;8401;52.528;13.340;2024-03-02T13:01:20;13.70;99.90
16578;DHT22;8401;52.528;13.340;2024-03-02T13:03:49;13.80;99.90
16578;DHT22;8401;52.528;13.340;2024-03-02T13:06:16;13.80;99.90
16578;DHT22;8401;52.528;13.340;2024-03-02T13:08:42;13.80;99.90
16578;DHT22;8401;52.528;13.340;2024-03-02T13:11:08;13.90;99.90
16578;DHT22;8401;52.528;13.340;2024-03-02T13:13:34;13.80;99.90
16578;DHT22;8401;52.528;13.340;2024-03-02T13:16:00;14.10;99.90
16578;DHT22;8401;52.528;13.340;2024-03-02T13:18:27;14.10;99.90
16578;DHT22;8401;52.528;13.340;2024-03-02T13:20:54;14.00;99.90
16578;DHT22;8401;52.528;13.340;2024-03-02T13:23:21;13.90;99.90
16578;DHT22;8401;52.528;13.340;2024-03-02T13:25:47;14.00;99.90
16578;DHT22;8401;52.528;13.340;2024-03-02T13:28:13;14.20;99.90
16578;DHT22;8401;52.528;13.340;2024-03-02T13:30:38;14.30;99.90
16578;DHT22;8401;52.528;13.340;2024-03-02T13:33:04;14.30;99.90
16578;DHT22;8401;52.528;13.340;2024-03-02T13:35:30;14.40;99.90
16578;DHT22;8401;52.528;13.340;2024-03-02T13:37:55;14.40;99.90
16578;DHT22;8401;52.528;13.340;2024-03-02T13:40:21;14.30;99.90
16578;DHT22;8401;52.528;13.340;2024-03-02T13:42:49;14.30;99.90
16578;DHT22;8401;52.528;13.340;2024-03-02T13:45:16;14.30;99.90
16578;DHT22;8401;52.528;13.340;2024-03-02T13:47:43;14.50;99.90
16578;DHT22;8401;52.528;13.340;2024-03-02T13:50:09;14.40;99.90
16578;DHT22;8401;52.528;13.340;2024-03-02T13:52:35;14.40;99.90
16578;DHT22;8401;52.528;13.340;2024-03-02T13:55:01;14.60;99.90
16578;DHT22;8401;52.528;13.340;2024-03-02T13:57:27;14.80;99.90
16578;DHT22;8401;52.528;13.340;2024-03-02T13:59:53;14.90;99.90
16578;DHT22;8401;52.528;13.340;2024-03-02T14:02:20;15.00;99.90
16578;DHT22;8401;52.528;13.340;2024-03-02T14:04:46;15.00;99.90
16578;DHT22;8401;52.528;13.340;2024-03-02T14:07:13;15.10;99.90
16578;DHT22;8401;52.528;13.340;2024-03-02T14:09:39;15.30;99.90
16578;DHT22;8401;52.528;13.340;2024-03-02T14:12:05;15.40;99.90
16578;DHT22;8401;52.528;13.340;2024-03-02T14:14:31;15.30;99.90
16578;DHT22;8401;52.528;13.340;2024-03-02T14:16:57;15.20;99.90
16578;DHT22;8401;52.528;13.340;2024-03-02T14:19:26;15.00;99.90
16578;DHT22;8401;52.528;13.340;2024-03-02T14:21:52;14.90;99.90
16578;DHT22;8401;52.528;13.340;2024-03-02T14:24:18;14.90;99.90
16578;DHT22;8401;52.528;13.340;2024-03-02T14:26:43;14.70;99.90
16578;DHT22;8401;52.528;13.340;2024-03-02T14:29:10;14.80;99.90
16578;DHT22;8401;52.528;13.340;2024-03-02T14:31:36;14.80;99.90
16578;DHT22;8401;52.528;13.340;2024-03-02T14:34:02;14.90;99.90
16578;DHT22;8401;52.528;13.340;2024-03-02T14:36:28;14.90;99.90
16578;DHT22;8401;52.528;13.340;2024-03-02T14:38:54;14.80;99.90
16578;DHT22;8401;52.528;13.340;2024-03-02T14:41:20;14.60;99.90
16578;DHT22;8401;52.528;13.340;2024-03-02T14:43:46;14.40;99.90
16578;DHT22;8401;52.528;13.340;2024-03-02T14:46:12;14.40;99.90
16578;DHT22;8401;52.528;13.340;2024-03-02T14:48:38;14.40;99.90
16578;DHT22;8401;52.528;13.340;2024-03-02T14:51:04;14.40;99.90
16578;DHT22;8401;52.528;13.340;2024-03-02T14:53:29;14.40;99.90
16578;DHT22;8401;52.528;13.340;2024-03-02T14:55:55;14.20;99.90
16578;DHT22;8401;52.528;13.340;2024-03-02T14:58:21;14.10;99.90
16578;DHT22;8401;52.528;13.340;2024-03-02T15:00:47;14.10;99.90
16578;DHT22;8401;52.528;13.340;2024-03-02T15:03:12;14.00;99.90
16578;DHT22;8401;52.528;13.340;2024-03-02T15:05:38;14.00;99.90
16578;DHT22;8401;52.528;13.340;2024-03-02T15:08:06;13.90;99.90
16578;DHT22;8401;52.528;13.340;2024-03-02T15:10:32;13.90;99.90
16578;DHT22;8401;52.528;13.340;2024-03-02T15:12:58;13.90;99.90
16578;DHT22;8401;52.528;13.340;2024-03-02T15:15:24;13.90;99.90
16578;DHT22;8401;52.528;13.340;2024-03-02T15:17:50;13.90;99.90
16578;DHT22;8401;52.528;13.340;2024-03-02T15:20:16;13.80;99.90
16578;DHT22;8401;52.528;13.340;2024-03-02T15:22:41;13.80;99.90
16578;DHT22;8401;52.528;13.340;2024-03-02T15:25:07;13.80;99.90
16578;DHT22;8401;52.528;13.340;2024-03-02T15:27:33;13.80;99.90
16578;DHT22;8401;52.528;13.340;2024-03-02T15:29:58;13.80;99.90
16578;DHT22;8401;52.528;13.340;2024-03-02T15:32:24;13.80;99.90
16578;DHT22;8401;52.528;13.340;2024-03-02T15:34:52;13.80;99.90
16578;DHT22;8401;52.528;13.340;2024-03-02T15:37:18;13.80;99.90
16578;DHT22;8401;52.528;13.340;2024-03-02T15:39:44;13.80;99.90
16578;DHT22;8401;52.528;13.340;2024-03-02T15:42:10;13.80;99.90